sensor_id;sensor_type;location;lat;lon;timestamp;pressure;altitude;pressure_sealevel;temperature;humidity
53246;BME280;39569;51.090;-1.786;2023-02-18T00:01:30;101768.63;;;16.91;60.15
53246;BME280;39569;51.090;-1.786;2023-02-18T00:03:58;101766.75;;;16.92;59.85
53246;BME280;39569;51.090;-1.786;2023-02-18T00:06:29;101769.47;;;16.92;60.02
53246;BME280;39569;51.090;-1.786;2023-02-18T00:08:57;101767.63;;;17.13;59.50
53246;BME280;39569;51.090;-1.786;2023-02-18T00:11:27;101777.88;;;17.03;60.06
53246;BME280;39569;51.090;-1.786;2023-02-18T00:13:56;101772.81;;;16.94;60.11
53246;BME280;39569;51.090;-1.786;2023-02-18T00:16:25;101764.22;;;16.90;60.11
53246;BME280;39569;51.090;-1.786;2023-02-18T00:18:54;101768.06;;;16.96;59.51
53246;BME280;39569;51.090;-1.786;2023-02-18T00:21:22;101777.56;;;16.92;59.30
53246;BME280;39569;51.090;-1.786;2023-02-18T00:23:50;101778.25;;;16.50;59.30
53246;BME280;39569;51.090;-1.786;2023-02-18T00:26:18;101779.59;;;16.90;57.98
53246;BME280;39569;51.090;-1.786;2023-02-18T00:28:46;101780.78;;;16.66;58.06
53246;BME280;39569;51.090;-1.786;2023-02-18T00:31:15;101784.09;;;16.83;57.48
53246;BME280;39569;51.090;-1.786;2023-02-18T00:33:43;101781.03;;;16.27;58.24
53246;BME280;39569;51.090;-1.786;2023-02-18T00:36:12;101781.56;;;16.81;57.26
53246;BME280;39569;51.090;-1.786;2023-02-18T00:38:43;101774.56;;;16.87;57.11
53246;BME280;39569;51.090;-1.786;2023-02-18T00:41:11;101774.50;;;16.80;56.37
53246;BME280;39569;51.090;-1.786;2023-02-18T00:43:38;101776.47;;;16.57;55.95
53246;BME280;39569;51.090;-1.786;2023-02-18T00:46:05;101771.53;;;16.17;56.89
53246;BME280;39569;51.090;-1.786;2023-02-18T00:48:32;101770.34;;;16.34;56.52
53246;BME280;39569;51.090;-1.786;2023-02-18T00:51:00;101767.56;;;16.42;56.44
53246;BME280;39569;51.090;-1.786;2023-02-18T00:53:27;101766.34;;;16.44;55.53
53246;BME280;39569;51.090;-1.786;2023-02-18T00:55:54;101763.09;;;16.20;55.31
53246;BME280;39569;51.090;-1.786;2023-02-18T00:58:22;101766.06;;;16.39;54.84
53246;BME280;39569;51.090;-1.786;2023-02-18T01:00:49;101769.88;;;16.45;54.62
53246;BME280;39569;51.090;-1.786;2023-02-18T01:03:17;101769.56;;;16.11;55.17
53246;BME280;39569;51.090;-1.786;2023-02-18T01:05:44;101767.78;;;15.89;55.56
53246;BME280;39569;51.090;-1.786;2023-02-18T01:08:11;101757.88;;;16.04;55.13
53246;BME280;39569;51.090;-1.786;2023-02-18T01:10:41;101754.72;;;16.73;53.50
53246;BME280;39569;51.090;-1.786;2023-02-18T01:13:08;101761.19;;;15.77;55.30
53246;BME280;39569;51.090;-1.786;2023-02-18T01:15:37;101760.22;;;16.07;54.69
53246;BME280;39569;51.090;-1.786;2023-02-18T01:18:05;101751.94;;;16.23;53.55
53246;BME280;39569;51.090;-1.786;2023-02-18T01:20:32;101750.63;;;16.48;53.21
53246;BME280;39569;51.090;-1.786;2023-02-18T01:22:59;101756.88;;;16.48;53.58
53246;BME280;39569;51.090;-1.786;2023-02-18T01:25:25;101751.66;;;16.18;53.42
53246;BME280;39569;51.090;-1.786;2023-02-18T01:27:52;101743.00;;;16.37;53.16
53246;BME280;39569;51.090;-1.786;2023-02-18T01:30:19;101740.41;;;16.58;52.92
53246;BME280;39569;51.090;-1.786;2023-02-18T01:32:48;101751.47;;;16.63;52.42
53246;BME280;39569;51.090;-1.786;2023-02-18T01:35:16;101743.19;;;16.21;53.02
53246;BME280;39569;51.090;-1.786;2023-02-18T01:37:43;101741.34;;;16.21;53.28
53246;BME280;39569;51.090;-1.786;2023-02-18T01:40:12;101744.84;;;16.22;52.68
53246;BME280;39569;51.090;-1.786;2023-02-18T01:42:39;101741.69;;;16.18;52.87
53246;BME280;39569;51.090;-1.786;2023-02-18T01:48:15;101740.50;;;16.21;52.97
53246;BME280;39569;51.090;-1.786;2023-02-18T01:50:46;101739.00;;;16.18;52.91
53246;BME280;39569;51.090;-1.786;2023-02-18T01:53:18;101746.16;;;16.40;52.78
53246;BME280;39569;51.090;-1.786;2023-02-18T01:55:47;101736.88;;;16.57;52.08
53246;BME280;39569;51.090;-1.786;2023-02-18T01:58:14;101746.09;;;16.19;52.83
53246;BME280;39569;51.090;-1.786;2023-02-18T02:00:42;101742.34;;;16.35;52.82
53246;BME280;39569;51.090;-1.786;2023-02-18T02:03:08;101745.56;;;15.87;53.88
53246;BME280;39569;51.090;-1.786;2023-02-18T02:05:37;101731.75;;;15.90;53.67
53246;BME280;39569;51.090;-1.786;2023-02-18T02:08:04;101739.28;;;16.38;53.10
53246;BME280;39569;51.090;-1.786;2023-02-18T02:10:39;101737.88;;;16.27;52.51
53246;BME280;39569;51.090;-1.786;2023-02-18T02:13:14;101748.00;;;15.82;53.91
53246;BME280;39569;51.090;-1.786;2023-02-18T02:15:46;101741.63;;;15.97;53.56
53246;BME280;39569;51.090;-1.786;2023-02-18T02:18:26;101750.72;;;16.11;53.21
53246;BME280;39569;51.090;-1.786;2023-02-18T02:27:39;101738.47;;;16.08;53.33
53246;BME280;39569;51.090;-1.786;2023-02-18T02:30:41;101734.19;;;15.99;53.69
53246;BME280;39569;51.090;-1.786;2023-02-18T02:36:13;101731.03;;;15.96;54.07
53246;BME280;39569;51.090;-1.786;2023-02-18T02:38:51;101719.19;;;15.82;54.32
53246;BME280;39569;51.090;-1.786;2023-02-18T02:41:26;101721.22;;;15.65;54.92
53246;BME280;39569;51.090;-1.786;2023-02-18T02:44:07;101711.88;;;16.05;54.54
53246;BME280;39569;51.090;-1.786;2023-02-18T02:46:39;101711.97;;;15.83;54.52
53246;BME280;39569;51.090;-1.786;2023-02-18T02:49:13;101718.69;;;15.49;55.53
53246;BME280;39569;51.090;-1.786;2023-02-18T02:51:53;101715.94;;;15.72;54.86
53246;BME280;39569;51.090;-1.786;2023-02-18T02:54:24;101720.72;;;15.47;55.49
53246;BME280;39569;51.090;-1.786;2023-02-18T02:57:04;101711.03;;;16.05;54.62
53246;BME280;39569;51.090;-1.786;2023-02-18T02:59:32;101695.88;;;15.89;54.89
53246;BME280;39569;51.090;-1.786;2023-02-18T03:02:12;101693.34;;;15.58;55.50
53246;BME280;39569;51.090;-1.786;2023-02-18T03:04:58;101678.78;;;15.97;54.48
53246;BME280;39569;51.090;-1.786;2023-02-18T03:10:42;101683.25;;;16.04;54.63
53246;BME280;39569;51.090;-1.786;2023-02-18T03:13:19;101675.63;;;15.79;55.23
53246;BME280;39569;51.090;-1.786;2023-02-18T03:15:54;101671.72;;;15.66;55.21
53246;BME280;39569;51.090;-1.786;2023-02-18T03:18:27;101670.78;;;15.89;55.25
53246;BME280;39569;51.090;-1.786;2023-02-18T03:21:03;101664.94;;;15.70;55.34
53246;BME280;39569;51.090;-1.786;2023-02-18T03:23:37;101669.22;;;15.80;55.40
53246;BME280;39569;51.090;-1.786;2023-02-18T03:26:06;101661.50;;;15.77;55.35
53246;BME280;39569;51.090;-1.786;2023-02-18T03:28:34;101658.63;;;15.78;55.33
53246;BME280;39569;51.090;-1.786;2023-02-18T03:31:06;101651.09;;;16.03;55.06
53246;BME280;39569;51.090;-1.786;2023-02-18T03:33:37;101645.59;;;16.11;54.26
53246;BME280;39569;51.090;-1.786;2023-02-18T03:36:06;101646.44;;;16.11;54.98
53246;BME280;39569;51.090;-1.786;2023-02-18T03:38:38;101650.34;;;16.09;55.01
53246;BME280;39569;51.090;-1.786;2023-02-18T03:41:06;101645.16;;;15.78;55.58
53246;BME280;39569;51.090;-1.786;2023-02-18T03:43:33;101635.69;;;15.82;55.86
53246;BME280;39569;51.090;-1.786;2023-02-18T03:45:59;101641.66;;;15.40;57.24
53246;BME280;39569;51.090;-1.786;2023-02-18T03:48:26;101633.81;;;15.53;57.18
53246;BME280;39569;51.090;-1.786;2023-02-18T03:50:53;101635.28;;;16.00;55.58
53246;BME280;39569;51.090;-1.786;2023-02-18T03:53:20;101632.34;;;15.80;56.00
53246;BME280;39569;51.090;-1.786;2023-02-18T03:55:48;101611.97;;;15.92;55.53
53246;BME280;39569;51.090;-1.786;2023-02-18T03:58:15;101613.72;;;16.00;55.55
53246;BME280;39569;51.090;-1.786;2023-02-18T04:00:42;101614.19;;;16.18;54.74
53246;BME280;39569;51.090;-1.786;2023-02-18T04:03:09;101606.09;;;16.53;54.13
53246;BME280;39569;51.090;-1.786;2023-02-18T04:05:35;101612.84;;;15.63;56.47
53246;BME280;39569;51.090;-1.786;2023-02-18T04:08:02;101609.75;;;15.81;56.17
53246;BME280;39569;51.090;-1.786;2023-02-18T04:10:30;101611.34;;;15.61;56.83
53246;BME280;39569;51.090;-1.786;2023-02-18T04:12:58;101606.72;;;15.84;55.81
53246;BME280;39569;51.090;-1.786;2023-02-18T04:15:25;101608.72;;;15.97;55.46
53246;BME280;39569;51.090;-1.786;2023-02-18T04:17:51;101612.50;;;16.17;55.34
53246;BME280;39569;51.090;-1.786;2023-02-18T04:20:18;101611.69;;;16.02;55.67
53246;BME280;39569;51.090;-1.786;2023-02-18T04:22:46;101618.22;;;15.78;55.94
53246;BME280;39569;51.090;-1.786;2023-02-18T04:25:13;101614.97;;;15.83;56.52
53246;BME280;39569;51.090;-1.786;2023-02-18T04:27:40;101621.66;;;16.01;55.99
53246;BME280;39569;51.090;-1.786;2023-02-18T04:30:09;101614.25;;;16.24;55.33
53246;BME280;39569;51.090;-1.786;2023-02-18T04:32:36;101618.94;;;15.87;56.04
53246;BME280;39569;51.090;-1.786;2023-02-18T04:35:03;101618.19;;;16.07;55.47
53246;BME280;39569;51.090;-1.786;2023-02-18T04:37:30;101615.66;;;16.20;55.40
53246;BME280;39569;51.090;-1.786;2023-02-18T04:39:56;101610.19;;;16.64;54.00
53246;BME280;39569;51.090;-1.786;2023-02-18T04:42:23;101614.72;;;17.06;52.70
53246;BME280;39569;51.090;-1.786;2023-02-18T04:44:50;101618.06;;;16.65;53.81
53246;BME280;39569;51.090;-1.786;2023-02-18T04:47:18;101614.16;;;16.89;53.27
53246;BME280;39569;51.090;-1.786;2023-02-18T04:49:45;101618.78;;;16.53;53.44
53246;BME280;39569;51.090;-1.786;2023-02-18T04:52:12;101621.94;;;16.42;54.32
53246;BME280;39569;51.090;-1.786;2023-02-18T04:54:38;101615.31;;;16.44;54.29
53246;BME280;39569;51.090;-1.786;2023-02-18T04:57:05;101620.38;;;16.68;53.35
53246;BME280;39569;51.090;-1.786;2023-02-18T04:59:32;101616.84;;;16.68;53.45
53246;BME280;39569;51.090;-1.786;2023-02-18T05:01:58;101606.78;;;16.77;53.10
53246;BME280;39569;51.090;-1.786;2023-02-18T05:04:27;101618.47;;;16.84;53.27
53246;BME280;39569;51.090;-1.786;2023-02-18T05:06:53;101613.75;;;16.50;53.89
53246;BME280;39569;51.090;-1.786;2023-02-18T05:09:20;101620.84;;;16.51;54.21
53246;BME280;39569;51.090;-1.786;2023-02-18T05:11:47;101616.59;;;16.63;53.90
53246;BME280;39569;51.090;-1.786;2023-02-18T05:14:14;101619.25;;;16.27;54.79
53246;BME280;39569;51.090;-1.786;2023-02-18T05:16:41;101622.16;;;16.26;55.10
53246;BME280;39569;51.090;-1.786;2023-02-18T05:19:09;101618.72;;;16.32;54.97
53246;BME280;39569;51.090;-1.786;2023-02-18T05:21:40;101626.56;;;16.12;55.52
53246;BME280;39569;51.090;-1.786;2023-02-18T05:24:07;101622.94;;;16.05;55.54
53246;BME280;39569;51.090;-1.786;2023-02-18T05:26:34;101624.16;;;16.38;54.95
53246;BME280;39569;51.090;-1.786;2023-02-18T05:29:01;101618.31;;;15.99;56.13
53246;BME280;39569;51.090;-1.786;2023-02-18T05:31:28;101631.38;;;16.17;55.94
53246;BME280;39569;51.090;-1.786;2023-02-18T05:33:54;101627.28;;;16.21;55.89
53246;BME280;39569;51.090;-1.786;2023-02-18T05:36:21;101622.50;;;16.52;54.89
53246;BME280;39569;51.090;-1.786;2023-02-18T05:38:50;101619.03;;;16.79;54.43
53246;BME280;39569;51.090;-1.786;2023-02-18T05:41:16;101616.03;;;16.67;54.34
53246;BME280;39569;51.090;-1.786;2023-02-18T05:43:43;101628.53;;;15.89;56.52
53246;BME280;39569;51.090;-1.786;2023-02-18T05:46:27;101624.84;;;16.26;56.33
53246;BME280;39569;51.090;-1.786;2023-02-18T05:48:54;101638.44;;;16.18;56.32
53246;BME280;39569;51.090;-1.786;2023-02-18T05:51:21;101624.56;;;16.71;55.02
53246;BME280;39569;51.090;-1.786;2023-02-18T05:53:47;101623.34;;;15.88;57.09
53246;BME280;39569;51.090;-1.786;2023-02-18T05:56:16;101625.06;;;16.10;56.90
53246;BME280;39569;51.090;-1.786;2023-02-18T05:58:43;101617.41;;;16.28;56.11
53246;BME280;39569;51.090;-1.786;2023-02-18T06:01:10;101616.84;;;16.68;55.01
53246;BME280;39569;51.090;-1.786;2023-02-18T06:03:36;101623.22;;;16.10;56.61
53246;BME280;39569;51.090;-1.786;2023-02-18T06:06:04;101617.66;;;16.33;55.94
53246;BME280;39569;51.090;-1.786;2023-02-18T06:08:31;101608.19;;;16.37;55.85
53246;BME280;39569;51.090;-1.786;2023-02-18T06:10:58;101610.16;;;16.85;54.36
53246;BME280;39569;51.090;-1.786;2023-02-18T06:13:26;101607.88;;;16.46;55.27
53246;BME280;39569;51.090;-1.786;2023-02-18T06:15:53;101605.22;;;16.89;54.48
53246;BME280;39569;51.090;-1.786;2023-02-18T06:18:19;101607.78;;;16.04;56.46
53246;BME280;39569;51.090;-1.786;2023-02-18T06:20:47;101610.28;;;16.06;57.29
53246;BME280;39569;51.090;-1.786;2023-02-18T06:23:14;101618.47;;;15.98;56.87
53246;BME280;39569;51.090;-1.786;2023-02-18T06:25:41;101610.38;;;15.98;57.10
53246;BME280;39569;51.090;-1.786;2023-02-18T06:28:08;101611.09;;;16.21;56.89
53246;BME280;39569;51.090;-1.786;2023-02-18T06:30:36;101613.28;;;15.82;57.61
53246;BME280;39569;51.090;-1.786;2023-02-18T06:33:03;101598.31;;;16.08;56.85
53246;BME280;39569;51.090;-1.786;2023-02-18T06:35:30;101590.38;;;16.21;56.93
53246;BME280;39569;51.090;-1.786;2023-02-18T06:37:57;101589.84;;;16.68;55.46
53246;BME280;39569;51.090;-1.786;2023-02-18T06:40:24;101593.38;;;16.12;57.09
53246;BME280;39569;51.090;-1.786;2023-02-18T06:42:51;101597.94;;;16.11;57.51
53246;BME280;39569;51.090;-1.786;2023-02-18T06:45:18;101596.00;;;16.41;56.36
53246;BME280;39569;51.090;-1.786;2023-02-18T06:47:47;101590.78;;;16.39;56.54
53246;BME280;39569;51.090;-1.786;2023-02-18T06:50:14;101594.53;;;15.88;58.04
53246;BME280;39569;51.090;-1.786;2023-02-18T06:52:41;101588.66;;;15.99;57.26
53246;BME280;39569;51.090;-1.786;2023-02-18T06:55:08;101598.66;;;16.20;57.01
53246;BME280;39569;51.090;-1.786;2023-02-18T06:57:34;101589.75;;;16.19;57.11
53246;BME280;39569;51.090;-1.786;2023-02-18T07:00:02;101590.09;;;16.31;57.21
53246;BME280;39569;51.090;-1.786;2023-02-18T07:02:29;101595.03;;;16.13;57.58
53246;BME280;39569;51.090;-1.786;2023-02-18T07:04:58;101593.25;;;16.55;56.53
53246;BME280;39569;51.090;-1.786;2023-02-18T07:07:25;101597.72;;;16.13;57.35
53246;BME280;39569;51.090;-1.786;2023-02-18T07:09:51;101597.38;;;16.37;56.69
53246;BME280;39569;51.090;-1.786;2023-02-18T07:12:18;101602.13;;;16.35;56.68
53246;BME280;39569;51.090;-1.786;2023-02-18T07:14:45;101600.41;;;16.63;56.24
53246;BME280;39569;51.090;-1.786;2023-02-18T07:17:12;101601.25;;;16.63;56.06
53246;BME280;39569;51.090;-1.786;2023-02-18T07:19:39;101596.19;;;16.39;56.66
53246;BME280;39569;51.090;-1.786;2023-02-18T07:22:07;101587.50;;;16.58;56.27
53246;BME280;39569;51.090;-1.786;2023-02-18T07:24:34;101601.72;;;16.17;57.15
53246;BME280;39569;51.090;-1.786;2023-02-18T07:27:01;101575.50;;;16.46;56.24
53246;BME280;39569;51.090;-1.786;2023-02-18T07:29:28;101584.41;;;16.61;56.46
53246;BME280;39569;51.090;-1.786;2023-02-18T07:31:54;101582.25;;;16.36;56.70
53246;BME280;39569;51.090;-1.786;2023-02-18T07:34:21;101582.56;;;16.62;56.20
53246;BME280;39569;51.090;-1.786;2023-02-18T07:36:48;101582.31;;;16.42;56.73
53246;BME280;39569;51.090;-1.786;2023-02-18T07:39:16;101581.75;;;16.47;56.78
53246;BME280;39569;51.090;-1.786;2023-02-18T07:41:45;101592.13;;;16.86;55.53
53246;BME280;39569;51.090;-1.786;2023-02-18T07:44:12;101590.22;;;17.07;54.96
53246;BME280;39569;51.090;-1.786;2023-02-18T07:46:39;101587.88;;;16.55;56.14
53246;BME280;39569;51.090;-1.786;2023-02-18T07:49:06;101597.38;;;16.37;56.64
53246;BME280;39569;51.090;-1.786;2023-02-18T07:51:33;101602.94;;;16.92;55.72
53246;BME280;39569;51.090;-1.786;2023-02-18T07:53:59;101601.69;;;16.88;55.46
53246;BME280;39569;51.090;-1.786;2023-02-18T07:56:28;101604.63;;;16.93;55.59
53246;BME280;39569;51.090;-1.786;2023-02-18T07:58:54;101615.66;;;17.19;55.15
53246;BME280;39569;51.090;-1.786;2023-02-18T08:01:21;101607.88;;;17.31;54.44
53246;BME280;39569;51.090;-1.786;2023-02-18T08:03:48;101617.91;;;17.16;55.17
53246;BME280;39569;51.090;-1.786;2023-02-18T08:06:21;101618.38;;;16.98;55.85
53246;BME280;39569;51.090;-1.786;2023-02-18T08:08:50;101616.47;;;16.71;56.13
53246;BME280;39569;51.090;-1.786;2023-02-18T08:11:16;101628.78;;;16.59;56.93
53246;BME280;39569;51.090;-1.786;2023-02-18T08:13:45;101629.69;;;17.08;56.25
53246;BME280;39569;51.090;-1.786;2023-02-18T08:16:12;101626.09;;;16.80;57.43
53246;BME280;39569;51.090;-1.786;2023-02-18T08:18:39;101617.22;;;17.07;56.97
53246;BME280;39569;51.090;-1.786;2023-02-18T08:21:05;101621.00;;;17.13;56.67
53246;BME280;39569;51.090;-1.786;2023-02-18T08:23:32;101614.25;;;17.02;56.60
53246;BME280;39569;51.090;-1.786;2023-02-18T08:25:59;101618.59;;;17.24;56.57
53246;BME280;39569;51.090;-1.786;2023-02-18T08:28:26;101623.41;;;16.80;57.88
53246;BME280;39569;51.090;-1.786;2023-02-18T08:30:54;101622.81;;;16.85;58.01
53246;BME280;39569;51.090;-1.786;2023-02-18T08:33:22;101619.78;;;16.52;59.33
53246;BME280;39569;51.090;-1.786;2023-02-18T08:35:50;101620.50;;;16.25;60.33
53246;BME280;39569;51.090;-1.786;2023-02-18T08:38:17;101627.56;;;16.61;59.39
53246;BME280;39569;51.090;-1.786;2023-02-18T08:40:44;101629.66;;;16.45;59.97
53246;BME280;39569;51.090;-1.786;2023-02-18T08:43:14;101622.22;;;16.68;59.06
53246;BME280;39569;51.090;-1.786;2023-02-18T08:45:42;101626.69;;;16.97;58.65
53246;BME280;39569;51.090;-1.786;2023-02-18T08:48:12;101616.22;;;17.15;58.59
53246;BME280;39569;51.090;-1.786;2023-02-18T08:50:40;101617.31;;;16.72;59.79
53246;BME280;39569;51.090;-1.786;2023-02-18T08:53:06;101607.59;;;16.98;59.53
53246;BME280;39569;51.090;-1.786;2023-02-18T08:55:33;101616.91;;;16.75;60.03
53246;BME280;39569;51.090;-1.786;2023-02-18T08:58:03;101613.28;;;17.10;59.11
53246;BME280;39569;51.090;-1.786;2023-02-18T09:00:30;101623.00;;;16.83;59.78
53246;BME280;39569;51.090;-1.786;2023-02-18T09:02:57;101623.41;;;17.01;59.39
53246;BME280;39569;51.090;-1.786;2023-02-18T09:05:26;101620.81;;;16.72;60.16
53246;BME280;39569;51.090;-1.786;2023-02-18T09:07:53;101618.91;;;17.36;58.94
53246;BME280;39569;51.090;-1.786;2023-02-18T09:10:20;101624.97;;;17.17;59.72
53246;BME280;39569;51.090;-1.786;2023-02-18T09:12:46;101623.16;;;16.75;60.74
53246;BME280;39569;51.090;-1.786;2023-02-18T09:15:13;101616.84;;;17.10;60.20
53246;BME280;39569;51.090;-1.786;2023-02-18T09:17:40;101618.25;;;17.34;59.05
53246;BME280;39569;51.090;-1.786;2023-02-18T09:20:07;101628.06;;;17.14;59.19
53246;BME280;39569;51.090;-1.786;2023-02-18T09:22:36;101617.56;;;17.25;60.02
53246;BME280;39569;51.090;-1.786;2023-02-18T09:25:03;101611.16;;;17.26;59.64
53246;BME280;39569;51.090;-1.786;2023-02-18T09:27:30;101618.69;;;17.37;59.66
53246;BME280;39569;51.090;-1.786;2023-02-18T09:29:57;101619.84;;;17.84;58.29
53246;BME280;39569;51.090;-1.786;2023-02-18T09:32:23;101613.63;;;17.28;59.61
53246;BME280;39569;51.090;-1.786;2023-02-18T09:34:50;101612.31;;;17.45;59.25
53246;BME280;39569;51.090;-1.786;2023-02-18T09:37:17;101615.50;;;17.27;59.63
53246;BME280;39569;51.090;-1.786;2023-02-18T09:39:45;101621.41;;;17.65;58.86
53246;BME280;39569;51.090;-1.786;2023-02-18T09:42:16;101615.00;;;17.45;59.37
53246;BME280;39569;51.090;-1.786;2023-02-18T09:44:46;101620.59;;;18.05;57.44
53246;BME280;39569;51.090;-1.786;2023-02-18T09:47:17;101622.41;;;17.57;58.44
53246;BME280;39569;51.090;-1.786;2023-02-18T09:49:48;101623.09;;;17.66;58.54
53246;BME280;39569;51.090;-1.786;2023-02-18T09:52:20;101620.31;;;17.32;59.36
53246;BME280;39569;51.090;-1.786;2023-02-18T09:54:50;101609.06;;;17.84;58.55
53246;BME280;39569;51.090;-1.786;2023-02-18T09:57:22;101610.31;;;17.88;58.02
53246;BME280;39569;51.090;-1.786;2023-02-18T09:59:56;101608.91;;;17.92;58.51
53246;BME280;39569;51.090;-1.786;2023-02-18T10:02:26;101610.50;;;18.27;57.22
53246;BME280;39569;51.090;-1.786;2023-02-18T10:04:54;101621.28;;;18.20;57.64
53246;BME280;39569;51.090;-1.786;2023-02-18T10:07:25;101613.41;;;18.32;57.51
53246;BME280;39569;51.090;-1.786;2023-02-18T10:09:56;101630.09;;;17.88;58.43
53246;BME280;39569;51.090;-1.786;2023-02-18T10:12:24;101624.16;;;17.72;59.29
53246;BME280;39569;51.090;-1.786;2023-02-18T10:14:53;101627.56;;;17.52;59.57
53246;BME280;39569;51.090;-1.786;2023-02-18T10:17:22;101633.28;;;17.64;59.59
53246;BME280;39569;51.090;-1.786;2023-02-18T10:19:51;101637.41;;;17.39;60.65
53246;BME280;39569;51.090;-1.786;2023-02-18T10:22:19;101634.50;;;17.68;59.93
53246;BME280;39569;51.090;-1.786;2023-02-18T10:24:50;101635.50;;;17.60;60.26
53246;BME280;39569;51.090;-1.786;2023-02-18T10:27:25;101627.88;;;17.43;60.57
53246;BME280;39569;51.090;-1.786;2023-02-18T10:29:53;101630.66;;;17.84;59.01
53246;BME280;39569;51.090;-1.786;2023-02-18T10:32:22;101639.38;;;17.79;58.76
53246;BME280;39569;51.090;-1.786;2023-02-18T10:34:52;101636.63;;;18.07;58.79
53246;BME280;39569;51.090;-1.786;2023-02-18T10:37:30;101634.56;;;17.47;60.24
53246;BME280;39569;51.090;-1.786;2023-02-18T10:40:08;101642.59;;;17.40;60.21
53246;BME280;39569;51.090;-1.786;2023-02-18T10:42:45;101620.84;;;17.76;59.82
53246;BME280;39569;51.090;-1.786;2023-02-18T10:45:30;101608.41;;;17.82;59.22
53246;BME280;39569;51.090;-1.786;2023-02-18T10:48:20;101636.69;;;18.26;58.04
53246;BME280;39569;51.090;-1.786;2023-02-18T10:50:52;101623.91;;;18.01;59.02
53246;BME280;39569;51.090;-1.786;2023-02-18T10:53:28;101629.59;;;18.12;58.54
53246;BME280;39569;51.090;-1.786;2023-02-18T10:55:57;101622.63;;;18.44;57.90
53246;BME280;39569;51.090;-1.786;2023-02-18T10:58:29;101620.59;;;18.52;57.62
53246;BME280;39569;51.090;-1.786;2023-02-18T11:00:58;101616.06;;;18.19;57.92
53246;BME280;39569;51.090;-1.786;2023-02-18T11:03:38;101618.72;;;18.06;58.67
53246;BME280;39569;51.090;-1.786;2023-02-18T11:06:14;101610.88;;;18.24;58.63
53246;BME280;39569;51.090;-1.786;2023-02-18T11:08:43;101616.84;;;18.53;57.69
53246;BME280;39569;51.090;-1.786;2023-02-18T11:11:15;101611.75;;;17.84;58.95
53246;BME280;39569;51.090;-1.786;2023-02-18T11:13:43;101621.41;;;18.46;57.96
53246;BME280;39569;51.090;-1.786;2023-02-18T11:16:11;101617.34;;;18.29;57.58
53246;BME280;39569;51.090;-1.786;2023-02-18T11:18:40;101625.78;;;18.47;57.51
53246;BME280;39569;51.090;-1.786;2023-02-18T11:21:20;101622.69;;;18.70;56.78
53246;BME280;39569;51.090;-1.786;2023-02-18T11:23:49;101610.44;;;19.26;55.66
53246;BME280;39569;51.090;-1.786;2023-02-18T11:26:22;101619.41;;;19.46;54.83
53246;BME280;39569;51.090;-1.786;2023-02-18T11:28:57;101616.84;;;18.67;56.62
53246;BME280;39569;51.090;-1.786;2023-02-18T11:31:35;101622.06;;;18.68;56.89
53246;BME280;39569;51.090;-1.786;2023-02-18T11:34:05;101618.72;;;18.53;57.78
53246;BME280;39569;51.090;-1.786;2023-02-18T11:36:34;101608.97;;;18.78;57.02
53246;BME280;39569;51.090;-1.786;2023-02-18T11:39:04;101624.88;;;18.40;57.89
53246;BME280;39569;51.090;-1.786;2023-02-18T11:41:35;101623.47;;;18.44;57.89
53246;BME280;39569;51.090;-1.786;2023-02-18T11:44:07;101629.59;;;18.12;59.18
53246;BME280;39569;51.090;-1.786;2023-02-18T11:46:55;101627.50;;;18.75;57.81
53246;BME280;39569;51.090;-1.786;2023-02-18T11:49:24;101632.22;;;18.46;58.90
53246;BME280;39569;51.090;-1.786;2023-02-18T11:51:51;101636.28;;;18.29;59.81
53246;BME280;39569;51.090;-1.786;2023-02-18T11:54:23;101639.94;;;18.56;59.37
53246;BME280;39569;51.090;-1.786;2023-02-18T11:56:56;101636.00;;;18.72;58.85
53246;BME280;39569;51.090;-1.786;2023-02-18T11:59:25;101625.47;;;19.16;58.21
53246;BME280;39569;51.090;-1.786;2023-02-18T12:01:58;101625.06;;;19.12;58.33
53246;BME280;39569;51.090;-1.786;2023-02-18T12:04:30;101623.75;;;18.89;58.76
53246;BME280;39569;51.090;-1.786;2023-02-18T12:07:10;101628.44;;;18.41;60.17
53246;BME280;39569;51.090;-1.786;2023-02-18T12:09:44;101635.66;;;18.27;60.68
53246;BME280;39569;51.090;-1.786;2023-02-18T12:12:15;101628.84;;;17.91;61.82
53246;BME280;39569;51.090;-1.786;2023-02-18T12:14:45;101628.50;;;18.47;60.74
53246;BME280;39569;51.090;-1.786;2023-02-18T12:17:26;101629.97;;;18.09;61.72
53246;BME280;39569;51.090;-1.786;2023-02-18T12:20:17;101624.44;;;18.37;61.62
53246;BME280;39569;51.090;-1.786;2023-02-18T12:22:56;101623.97;;;18.20;61.74
53246;BME280;39569;51.090;-1.786;2023-02-18T12:25:34;101616.06;;;19.05;59.45
53246;BME280;39569;51.090;-1.786;2023-02-18T12:31:10;101614.38;;;18.72;60.42
53246;BME280;39569;51.090;-1.786;2023-02-18T12:33:50;101612.47;;;18.59;61.21
53246;BME280;39569;51.090;-1.786;2023-02-18T12:36:36;101617.59;;;18.34;61.88
53246;BME280;39569;51.090;-1.786;2023-02-18T12:39:11;101611.03;;;18.63;60.81
53246;BME280;39569;51.090;-1.786;2023-02-18T12:41:54;101605.38;;;18.45;61.58
53246;BME280;39569;51.090;-1.786;2023-02-18T12:44:33;101612.25;;;18.54;61.55
53246;BME280;39569;51.090;-1.786;2023-02-18T12:47:30;101610.50;;;18.27;61.83
53246;BME280;39569;51.090;-1.786;2023-02-18T12:53:06;101598.09;;;18.45;61.13
53246;BME280;39569;51.090;-1.786;2023-02-18T12:55:50;101611.72;;;18.18;62.20
53246;BME280;39569;51.090;-1.786;2023-02-18T12:58:32;101597.28;;;18.64;61.20
53246;BME280;39569;51.090;-1.786;2023-02-18T13:01:18;101604.78;;;18.56;61.28
53246;BME280;39569;51.090;-1.786;2023-02-18T13:07:12;101593.38;;;18.07;62.16
53246;BME280;39569;51.090;-1.786;2023-02-18T13:09:53;101591.34;;;18.35;61.61
53246;BME280;39569;51.090;-1.786;2023-02-18T13:12:27;101586.78;;;17.82;62.33
53246;BME280;39569;51.090;-1.786;2023-02-18T13:15:00;101593.25;;;17.87;62.81
53246;BME280;39569;51.090;-1.786;2023-02-18T13:17:31;101589.16;;;18.45;61.75
53246;BME280;39569;51.090;-1.786;2023-02-18T13:20:04;101590.94;;;18.25;61.73